Time;durP1;ratioP1;P1;durP2;ratioP2;P2;SDS_P1;SDS_P2;PMS_P1;PMS_P2;Temp;Humidity;BMP_temperature;BMP_pressure;BME280_temperature;BME280_humidity;BME280_pressure;Samples;Min_cycle;Max_cycle;Signal;HPM_P1;HPM_P2
2023/05/19 00:01:42;;;;;;;14.43;4.78;;;8.30;99.90;;;;;;5042131;28;20040;-76
2023/05/19 00:04:11;;;;;;;13.60;5.05;;;8.30;99.90;;;;;;5053054;28;20063;-76
2023/05/19 00:06:37;;;;;;;15.60;5.32;;;8.30;99.90;;;;;;5055682;28;20040;-76
2023/05/19 00:09:08;;;;;;;17.83;5.38;;;8.30;99.90;;;;;;5061203;28;20409;-75
2023/05/19 00:11:35;;;;;;;16.75;5.60;;;8.20;99.90;;;;;;5044357;28;20043;-76
2023/05/19 00:14:03;;;;;;;15.85;5.30;;;8.30;99.90;;;;;;5073610;28;20119;-75
2023/05/19 00:16:29;;;;;;;16.30;5.22;;;8.20;99.90;;;;;;5058085;28;20513;-75
2023/05/19 00:18:58;;;;;;;15.50;4.72;;;8.20;99.90;;;;;;5046301;28;20075;-76
2023/05/19 00:21:24;;;;;;;15.15;5.45;;;8.20;99.90;;;;;;5042178;28;20115;-76
2023/05/19 00:23:50;;;;;;;11.90;4.90;;;8.20;99.90;;;;;;5074950;28;20493;-76
2023/05/19 00:26:16;;;;;;;13.98;4.85;;;8.20;99.90;;;;;;5074876;28;20055;-76
2023/05/19 00:28:42;;;;;;;14.20;5.00;;;8.20;99.90;;;;;;5073483;28;20071;-76
2023/05/19 00:31:07;;;;;;;12.90;5.00;;;8.20;99.90;;;;;;5047594;28;20054;-75
2023/05/19 00:33:33;;;;;;;11.88;5.15;;;8.10;99.90;;;;;;5060369;28;20040;-75
2023/05/19 00:36:02;;;;;;;16.98;4.85;;;8.10;99.90;;;;;;5069194;28;20075;-76
2023/05/19 00:38:33;;;;;;;12.65;5.07;;;8.10;99.90;;;;;;5061297;28;20063;-76
2023/05/19 00:41:00;;;;;;;13.85;4.57;;;8.10;99.90;;;;;;5053778;28;20070;-76
2023/05/19 00:43:26;;;;;;;14.05;4.40;;;8.10;99.90;;;;;;5067900;28;20035;-76
2023/05/19 00:45:52;;;;;;;13.10;4.72;;;8.10;99.90;;;;;;5055021;28;20095;-76
2023/05/19 00:48:17;;;;;;;13.43;4.43;;;8.00;99.90;;;;;;5062312;28;20489;-76
2023/05/19 00:50:44;;;;;;;13.13;4.43;;;8.00;99.90;;;;;;5057559;28;20044;-76
2023/05/19 00:53:12;;;;;;;13.70;5.68;;;8.00;99.90;;;;;;5053977;28;20036;-75
2023/05/19 00:55:39;;;;;;;15.63;4.95;;;8.00;99.90;;;;;;5061604;28;20063;-76
2023/05/19 00:58:08;;;;;;;16.00;4.28;;;8.00;99.90;;;;;;5067384;28;20040;-76
2023/05/19 01:00:35;;;;;;;11.23;4.60;;;7.90;99.90;;;;;;5067558;28;20044;-76
2023/05/19 01:03:02;;;;;;;12.18;4.32;;;7.90;99.90;;;;;;5057694;28;20040;-76
2023/05/19 01:05:27;;;;;;;11.65;4.10;;;7.80;99.90;;;;;;5050800;28;20493;-75
2023/05/19 01:07:55;;;;;;;13.45;4.40;;;7.80;99.90;;;;;;5051334;28;20055;-75
2023/05/19 01:10:21;;;;;;;9.68;3.95;;;7.80;99.90;;;;;;5073199;28;20040;-76
2023/05/19 01:12:47;;;;;;;11.63;4.45;;;7.80;99.90;;;;;;5067020;28;20120;-76
2023/05/19 01:15:14;;;;;;;14.40;4.20;;;7.70;99.90;;;;;;5053128;28;20036;-76
2023/05/19 01:17:55;;;;;;;10.32;3.78;;;7.70;99.90;;;;;;5073742;28;20436;-76
2023/05/19 01:20:34;;;;;;;13.98;4.25;;;7.60;99.90;;;;;;5067899;28;20040;-76
2023/05/19 01:23:25;;;;;;;13.70;4.18;;;7.70;99.90;;;;;;5044358;28;20043;-75
2023/05/19 01:26:13;;;;;;;10.88;4.07;;;7.60;99.90;;;;;;5067588;28;20125;-75
2023/05/19 01:28:57;;;;;;;14.02;4.38;;;7.60;99.90;;;;;;5072333;28;20047;-75
2023/05/19 01:31:24;;;;;;;11.50;4.43;;;7.60;99.90;;;;;;5057210;28;20047;-75
2023/05/19 01:33:52;;;;;;;10.20;4.10;;;7.50;99.90;;;;;;5040688;28;20063;-75
2023/05/19 01:36:20;;;;;;;12.82;4.38;;;7.50;99.90;;;;;;5065914;28;20088;-75
2023/05/19 01:38:48;;;;;;;13.55;3.90;;;7.50;99.90;;;;;;5050661;28;20520;-76
2023/05/19 01:41:15;;;;;;;12.57;4.07;;;7.50;99.90;;;;;;5059586;28;20510;-76
2023/05/19 01:43:41;;;;;;;12.88;3.95;;;7.50;99.90;;;;;;5058420;28;20044;-76
2023/05/19 01:46:07;;;;;;;9.35;3.83;;;7.50;99.90;;;;;;5066333;28;20094;-75
2023/05/19 01:48:33;;;;;;;13.18;3.90;;;7.50;99.90;;;;;;5062125;28;20055;-76
2023/05/19 01:50:59;;;;;;;10.73;3.50;;;7.60;99.90;;;;;;5054155;28;20040;-76
2023/05/19 01:53:25;;;;;;;11.98;3.50;;;7.60;99.90;;;;;;5055290;28;20433;-75
2023/05/19 01:55:52;;;;;;;12.43;3.60;;;7.70;99.90;;;;;;5035729;28;20123;-75
2023/05/19 01:58:47;;;;;;;16.13;3.75;;;7.70;99.90;;;;;;5053694;28;20059;-75
2023/05/19 02:01:31;;;;;;;11.95;3.53;;;7.70;99.90;;;;;;5068417;28;20604;-75
2023/05/19 02:04:17;;;;;;;14.88;3.72;;;7.70;99.90;;;;;;5052659;28;20524;-75
2023/05/19 02:06:59;;;;;;;13.55;3.50;;;7.70;99.90;;;;;;5044886;28;20040;-75
2023/05/19 02:09:47;;;;;;;13.13;3.22;;;7.70;99.90;;;;;;5064242;28;20565;-75
2023/05/19 02:12:12;;;;;;;14.55;3.63;;;7.60;99.90;;;;;;5055067;28;20072;-75
2023/05/19 02:14:49;;;;;;;14.15;3.72;;;7.60;99.90;;;;;;5055630;28;20076;-75
2023/05/19 02:17:16;;;;;;;13.30;3.78;;;7.60;99.90;;;;;;5076599;28;20032;-75
2023/05/19 02:19:43;;;;;;;16.00;3.88;;;7.60;99.90;;;;;;5064954;28;20054;-76
2023/05/19 02:22:09;;;;;;;14.88;4.03;;;7.60;99.90;;;;;;5056175;28;20040;-76
2023/05/19 02:24:36;;;;;;;11.63;3.67;;;7.60;99.90;;;;;;5071927;28;20032;-75
2023/05/19 02:27:02;;;;;;;14.00;4.22;;;7.60;99.90;;;;;;5056122;28;20402;-76
2023/05/19 02:29:28;;;;;;;14.07;3.85;;;7.50;99.90;;;;;;5061217;28;20047;-75
2023/05/19 02:31:54;;;;;;;15.63;3.63;;;7.60;99.90;;;;;;5063741;28;20120;-75
2023/05/19 02:34:20;;;;;;;14.55;3.80;;;7.50;99.90;;;;;;5031850;28;20083;-75
2023/05/19 02:36:48;;;;;;;14.13;3.67;;;7.50;99.90;;;;;;5054321;28;20457;-75
2023/05/19 02:39:14;;;;;;;14.80;4.05;;;7.50;99.90;;;;;;5061208;28;20044;-76
2023/05/19 02:41:40;;;;;;;13.00;3.75;;;7.50;99.90;;;;;;5067354;28;20043;-75
2023/05/19 02:44:06;;;;;;;14.23;4.15;;;7.50;99.90;;;;;;5042056;28;20032;-76
2023/05/19 02:46:32;;;;;;;12.82;4.22;;;7.50;99.90;;;;;;5052342;28;20036;-75
2023/05/19 02:48:58;;;;;;;14.18;3.50;;;7.50;99.90;;;;;;5056892;28;20036;-75
2023/05/19 02:51:24;;;;;;;13.35;3.55;;;7.50;99.90;;;;;;5062459;28;20058;-75
2023/05/19 02:53:50;;;;;;;12.68;3.70;;;7.50;99.90;;;;;;5053525;28;20036;-76
2023/05/19 02:56:15;;;;;;;14.77;3.63;;;7.50;99.90;;;;;;5053604;28;20055;-75
2023/05/19 02:58:42;;;;;;;12.35;4.03;;;7.40;99.90;;;;;;5052294;28;20043;-76
2023/05/19 03:01:08;;;;;;;12.25;3.50;;;7.40;99.90;;;;;;5030270;28;20131;-75
2023/05/19 03:03:34;;;;;;;11.02;3.47;;;7.40;99.90;;;;;;5069802;28;20055;-75
2023/05/19 03:06:00;;;;;;;12.77;3.60;;;7.40;99.90;;;;;;5048362;28;20042;-75
2023/05/19 03:08:26;;;;;;;15.60;3.70;;;7.40;99.90;;;;;;5047162;28;20067;-75
2023/05/19 03:10:52;;;;;;;12.20;3.50;;;7.40;99.90;;;;;;5050911;28;20051;-75
2023/05/19 03:13:18;;;;;;;10.25;3.47;;;7.60;99.90;;;;;;5062663;28;20048;-75
2023/05/19 03:15:44;;;;;;;12.05;3.83;;;7.30;99.90;;;;;;5050827;28;20071;-75
2023/05/19 03:18:11;;;;;;;11.95;3.47;;;7.30;99.90;;;;;;5051735;28;20069;-76
2023/05/19 03:20:37;;;;;;;10.98;3.30;;;7.30;99.90;;;;;;5055418;28;20405;-76
2023/05/19 03:23:03;;;;;;;10.98;3.55;;;7.30;99.90;;;;;;5066239;28;20294;-75
2023/05/19 03:25:29;;;;;;;11.63;3.20;;;7.50;99.90;;;;;;5071571;28;20039;-75
2023/05/19 03:27:54;;;;;;;9.52;3.10;;;7.20;99.90;;;;;;5060132;28;20040;-75
2023/05/19 03:30:21;;;;;;;12.40;3.00;;;7.20;99.90;;;;;;5068320;28;20042;-75
2023/05/19 03:32:46;;;;;;;9.30;3.10;;;7.20;99.90;;;;;;5050006;28;20228;-75
2023/05/19 03:35:12;;;;;;;8.63;2.90;;;7.10;99.90;;;;;;5070567;28;20248;-75
2023/05/19 03:37:38;;;;;;;7.60;2.80;;;7.10;99.90;;;;;;5044765;28;20032;-75
2023/05/19 03:40:04;;;;;;;10.80;3.00;;;7.00;99.90;;;;;;5071274;28;20569;-75
2023/05/19 03:42:30;;;;;;;11.13;3.20;;;7.10;99.90;;;;;;5063625;28;20032;-75
2023/05/19 03:44:56;;;;;;;13.57;3.30;;;7.00;99.90;;;;;;5059008;28;20578;-76
2023/05/19 03:47:22;;;;;;;10.48;2.92;;;7.00;99.90;;;;;;5068189;28;20134;-75
2023/05/19 03:49:47;;;;;;;11.80;3.60;;;7.00;99.90;;;;;;5070946;28;20099;-76
2023/05/19 03:52:14;;;;;;;9.88;3.20;;;7.10;99.90;;;;;;5069532;28;20044;-75
2023/05/19 03:54:41;;;;;;;8.15;2.95;;;7.10;99.90;;;;;;5029641;28;20498;-75
2023/05/19 03:57:08;;;;;;;9.70;3.38;;;7.10;99.90;;;;;;5066104;28;20032;-75
2023/05/19 03:59:36;;;;;;;7.68;2.88;;;7.20;99.90;;;;;;5069366;28;20036;-76
2023/05/19 04:02:02;;;;;;;8.20;2.80;;;7.30;99.90;;;;;;5071154;28;20063;-75
2023/05/19 04:04:28;;;;;;;10.40;2.90;;;7.00;99.90;;;;;;5065133;28;20040;-75
2023/05/19 04:06:53;;;;;;;9.77;3.30;;;7.00;99.90;;;;;;5038645;28;20086;-75
2023/05/19 04:09:20;;;;;;;8.43;3.30;;;7.00;99.90;;;;;;5048397;28;20357;-75
2023/05/19 04:11:45;;;;;;;10.10;3.10;;;7.10;99.90;;;;;;5064628;28;20040;-75
2023/05/19 04:14:11;;;;;;;9.07;3.00;;;7.10;99.90;;;;;;5049378;28;20539;-75
2023/05/19 04:16:37;;;;;;;11.15;3.08;;;7.10;99.90;;;;;;5044749;28;20447;-75
2023/05/19 04:19:03;;;;;;;11.52;3.00;;;7.20;99.90;;;;;;5069144;28;20051;-75
2023/05/19 04:21:28;;;;;;;10.75;3.03;;;7.50;99.90;;;;;;5070982;28;20162;-75
2023/05/19 04:23:54;;;;;;;10.98;3.63;;;7.30;99.90;;;;;;5066242;28;20521;-75
2023/05/19 04:26:21;;;;;;;9.73;3.20;;;7.30;99.90;;;;;;5060059;28;20142;-75
2023/05/19 04:28:47;;;;;;;10.68;3.53;;;7.40;99.90;;;;;;5054085;28;20044;-75
2023/05/19 04:31:13;;;;;;;12.57;3.63;;;7.40;99.90;;;;;;5035145;28;20040;-75
2023/05/19 04:33:40;;;;;;;11.27;3.90;;;7.50;99.90;;;;;;5064724;28;20116;-75
2023/05/19 04:36:09;;;;;;;14.23;3.65;;;7.60;99.90;;;;;;5057787;28;20703;-75
2023/05/19 04:38:38;;;;;;;9.05;3.20;;;7.70;99.90;;;;;;5067840;28;20044;-75
2023/05/19 04:41:09;;;;;;;12.15;4.03;;;7.80;99.90;;;;;;5060415;28;20144;-75
2023/05/19 04:43:35;;;;;;;10.88;4.00;;;7.90;99.90;;;;;;5055145;28;20267;-75
2023/05/19 04:46:04;;;;;;;11.77;4.47;;;8.00;99.90;;;;;;5054715;28;20048;-75
2023/05/19 04:48:32;;;;;;;11.70;4.07;;;8.20;99.90;;;;;;5047943;28;20052;-75
2023/05/19 04:51:00;;;;;;;13.02;5.05;;;8.20;99.90;;;;;;5062036;28;20650;-75
2023/05/19 04:53:30;;;;;;;12.20;4.30;;;8.30;99.90;;;;;;5057979;28;20124;-75
2023/05/19 04:55:57;;;;;;;11.02;4.18;;;8.40;99.90;;;;;;5066735;28;20241;-75
2023/05/19 04:58:24;;;;;;;10.10;4.53;;;8.50;99.90;;;;;;5056756;28;20036;-75
2023/05/19 05:00:51;;;;;;;11.43;4.28;;;8.60;99.90;;;;;;5068730;28;20484;-75
2023/05/19 05:03:17;;;;;;;12.48;4.35;;;8.70;99.90;;;;;;5064485;28;20035;-75
2023/05/19 05:05:43;;;;;;;13.20;4.90;;;8.80;99.90;;;;;;5045431;28;20048;-75
2023/05/19 05:08:13;;;;;;;10.70;4.40;;;8.90;99.90;;;;;;5057550;28;20086;-75
2023/05/19 05:10:40;;;;;;;12.35;4.85;;;9.00;99.90;;;;;;5065526;28;20037;-76
2023/05/19 05:13:06;;;;;;;13.73;4.80;;;9.10;99.90;;;;;;5061692;28;20097;-76
2023/05/19 05:15:32;;;;;;;13.25;5.25;;;9.20;99.90;;;;;;5050625;28;20467;-75
2023/05/19 05:17:58;;;;;;;15.13;5.63;;;9.30;99.90;;;;;;5074313;28;20050;-76
2023/05/19 05:20:24;;;;;;;13.55;5.28;;;9.40;99.90;;;;;;5045774;28;20528;-75
2023/05/19 05:22:50;;;;;;;15.68;6.32;;;9.50;99.90;;;;;;5057607;28;20064;-76
2023/05/19 05:25:16;;;;;;;16.55;6.10;;;9.60;99.90;;;;;;5053075;28;20556;-76
2023/05/19 05:27:42;;;;;;;16.42;6.45;;;9.70;99.90;;;;;;5052566;28;20054;-75
2023/05/19 05:30:08;;;;;;;16.63;6.72;;;9.80;99.90;;;;;;5036407;28;20037;-75
2023/05/19 05:32:34;;;;;;;13.18;5.88;;;10.00;99.90;;;;;;5056561;28;20052;-75
2023/05/19 05:34:59;;;;;;;13.68;5.80;;;10.10;99.90;;;;;;5065593;28;20053;-76
2023/05/19 05:37:25;;;;;;;18.98;6.68;;;10.30;99.90;;;;;;5057950;28;20032;-75
2023/05/19 05:39:51;;;;;;;15.82;7.10;;;10.40;99.90;;;;;;5047767;28;20037;-75
2023/05/19 05:42:16;;;;;;;15.80;7.47;;;10.50;99.90;;;;;;5070055;28;20119;-75
2023/05/19 05:44:42;;;;;;;14.70;6.32;;;10.60;99.90;;;;;;5057328;28;20742;-75
2023/05/19 05:47:08;;;;;;;15.80;6.50;;;10.70;99.90;;;;;;5055488;28;20498;-75
2023/05/19 05:49:36;;;;;;;15.90;6.97;;;10.90;99.90;;;;;;5028314;28;20175;-75
2023/05/19 05:52:04;;;;;;;13.23;6.78;;;11.00;99.90;;;;;;5030955;28;20075;-75
2023/05/19 05:54:30;;;;;;;15.57;6.15;;;11.10;99.90;;;;;;5060614;28;20047;-75
2023/05/19 05:56:56;;;;;;;15.00;6.43;;;11.20;99.90;;;;;;5048170;28;20398;-75
2023/05/19 05:59:22;;;;;;;15.90;6.30;;;11.30;99.90;;;;;;5045451;28;21503;-75
2023/05/19 06:01:47;;;;;;;13.52;6.10;;;11.40;99.90;;;;;;5056749;28;20719;-75
2023/05/19 06:04:13;;;;;;;13.85;5.97;;;11.40;99.90;;;;;;5064629;28;20044;-75
2023/05/19 06:06:39;;;;;;;13.55;5.57;;;11.50;99.90;;;;;;5058260;28;20469;-75
2023/05/19 06:09:05;;;;;;;18.15;6.65;;;11.60;99.90;;;;;;5068093;28;20060;-75
2023/05/19 06:11:31;;;;;;;15.18;6.28;;;11.70;99.90;;;;;;5069349;28;20517;-75
2023/05/19 06:13:56;;;;;;;14.13;5.97;;;11.80;99.90;;;;;;5069034;28;20055;-75
2023/05/19 06:16:22;;;;;;;14.85;6.05;;;11.80;99.90;;;;;;5057113;28;20040;-75
2023/05/19 06:18:48;;;;;;;14.93;5.72;;;11.80;99.90;;;;;;5066019;28;20044;-75
2023/05/19 06:21:14;;;;;;;13.93;5.45;;;11.80;99.90;;;;;;5069676;28;20036;-75
2023/05/19 06:23:40;;;;;;;13.32;4.90;;;11.80;99.90;;;;;;5072512;28;20127;-75
2023/05/19 06:26:05;;;;;;;14.07;5.63;;;11.90;99.90;;;;;;5048445;28;20044;-75
2023/05/19 06:28:32;;;;;;;13.93;5.05;;;12.10;99.90;;;;;;5057900;28;20044;-75
2023/05/19 06:30:58;;;;;;;10.88;4.70;;;12.10;99.90;;;;;;5041108;28;20082;-75
2023/05/19 06:33:24;;;;;;;12.15;4.53;;;12.10;99.90;;;;;;5047204;28;20086;-74
2023/05/19 06:35:50;;;;;;;13.18;4.80;;;12.30;99.90;;;;;;5063237;28;20068;-74
2023/05/19 06:38:16;;;;;;;12.45;4.47;;;12.50;99.90;;;;;;5057369;28;20071;-74
2023/05/19 06:40:42;;;;;;;13.77;4.22;;;12.60;99.90;;;;;;5053916;28;20096;-74
2023/05/19 06:43:07;;;;;;;13.95;5.25;;;12.70;99.90;;;;;;5060849;28;20892;-74
2023/05/19 06:45:33;;;;;;;14.45;4.63;;;12.70;99.90;;;;;;5052215;28;20524;-74
2023/05/19 06:47:59;;;;;;;10.13;4.03;;;12.70;99.90;;;;;;5048964;28;21192;-74
2023/05/19 06:50:25;;;;;;;10.02;3.80;;;12.80;99.90;;;;;;5044543;28;20169;-74
2023/05/19 06:52:50;;;;;;;14.32;4.30;;;12.90;99.90;;;;;;5053540;28;20050;-74
2023/05/19 06:55:16;;;;;;;12.15;4.15;;;13.00;99.90;;;;;;5025059;28;20148;-74
2023/05/19 06:57:42;;;;;;;10.90;4.00;;;13.00;99.90;;;;;;5034626;28;20036;-74
2023/05/19 07:00:11;;;;;;;13.02;4.53;;;13.10;99.90;;;;;;5055129;28;20052;-75
2023/05/19 07:02:38;;;;;;;10.15;3.70;;;13.20;99.90;;;;;;5062323;28;20482;-75
2023/05/19 07:05:05;;;;;;;11.38;4.35;;;13.20;99.90;;;;;;5049236;28;20033;-75
2023/05/19 07:07:31;;;;;;;10.82;3.65;;;13.20;99.90;;;;;;5062151;28;20072;-75
2023/05/19 07:09:56;;;;;;;10.60;3.50;;;12.00;99.90;;;;;;5052543;28;20134;-74
2023/05/19 07:12:22;;;;;;;13.23;4.15;;;13.40;99.90;;;;;;5044985;28;20047;-75
2023/05/19 07:14:48;;;;;;;13.70;3.58;;;13.50;99.90;;;;;;5044146;28;20517;-74
2023/05/19 07:17:13;;;;;;;11.23;4.10;;;13.50;99.90;;;;;;5025508;28;20041;-74
2023/05/19 07:19:39;;;;;;;11.85;3.35;;;13.70;99.90;;;;;;5047286;28;20033;-75
2023/05/19 07:22:05;;;;;;;12.38;3.80;;;13.70;99.90;;;;;;5041833;28;20060;-74
2023/05/19 07:24:31;;;;;;;9.63;3.45;;;13.80;99.90;;;;;;5048492;28;20048;-74
2023/05/19 07:26:57;;;;;;;11.90;3.20;;;14.00;99.90;;;;;;5049412;28;20045;-74
2023/05/19 07:29:22;;;;;;;9.77;3.20;;;14.10;99.90;;;;;;5049854;28;20400;-74
2023/05/19 07:31:52;;;;;;;10.07;3.33;;;14.30;99.90;;;;;;5045484;28;20700;-75
2023/05/19 07:34:19;;;;;;;10.50;3.33;;;14.40;99.90;;;;;;5047221;28;20047;-74
2023/05/19 07:36:45;;;;;;;11.45;3.25;;;14.50;99.90;;;;;;5042648;28;20101;-75
2023/05/19 07:39:11;;;;;;;10.98;3.10;;;14.50;99.90;;;;;;5023228;28;20116;-75
2023/05/19 07:41:37;;;;;;;11.98;3.60;;;14.50;99.90;;;;;;5042012;28;20040;-74
2023/05/19 07:44:06;;;;;;;14.23;3.92;;;14.50;99.90;;;;;;5055776;28;20502;-74
2023/05/19 07:46:33;;;;;;;12.23;3.58;;;14.60;99.90;;;;;;5028266;28;20033;-75
2023/05/19 07:48:59;;;;;;;11.18;3.00;;;14.70;99.90;;;;;;5062277;28;20068;-74
2023/05/19 07:51:25;;;;;;;9.55;2.90;;;14.70;99.90;;;;;;5049905;28;20207;-75
2023/05/19 07:53:51;;;;;;;12.45;3.05;;;14.70;99.90;;;;;;5041689;28;20045;-75
2023/05/19 07:56:17;;;;;;;10.50;2.88;;;14.80;99.90;;;;;;5049741;28;20475;-75
2023/05/19 07:58:43;;;;;;;10.27;2.97;;;14.80;99.90;;;;;;5043044;28;20028;-75
2023/05/19 08:01:09;;;;;;;11.27;2.90;;;15.00;99.90;;;;;;5040321;28;20382;-75
2023/05/19 08:03:35;;;;;;;13.65;3.17;;;15.20;99.90;;;;;;5046163;28;20098;-74
2023/05/19 08:06:01;;;;;;;11.52;3.13;;;15.20;99.90;;;;;;5046174;28;20503;-75
2023/05/19 08:08:27;;;;;;;11.05;2.80;;;15.30;99.90;;;;;;5048009;28;20064;-74
2023/05/19 08:10:52;;;;;;;11.90;3.38;;;15.30;99.90;;;;;;5044954;28;20067;-74
2023/05/19 08:13:18;;;;;;;10.02;2.80;;;15.30;99.90;;;;;;5039558;28;20044;-74
2023/05/19 08:15:44;;;;;;;9.05;2.80;;;15.30;99.90;;;;;;5047779;28;20143;-75
2023/05/19 08:18:10;;;;;;;11.07;2.78;;;15.30;99.90;;;;;;5044970;28;20032;-74
2023/05/19 08:20:36;;;;;;;11.77;2.97;;;15.20;99.90;;;;;;5063485;28;20071;-74
2023/05/19 08:23:02;;;;;;;10.45;3.35;;;15.40;99.90;;;;;;5051999;28;20043;-74
2023/05/19 08:25:27;;;;;;;11.35;3.00;;;15.50;99.90;;;;;;5046090;28;20111;-75
2023/05/19 08:27:53;;;;;;;11.18;2.83;;;15.50;99.90;;;;;;5048095;28;20040;-75
2023/05/19 08:30:19;;;;;;;10.90;2.85;;;15.50;99.90;;;;;;5043311;28;20041;-74
2023/05/19 08:32:45;;;;;;;9.43;2.85;;;15.50;99.90;;;;;;5051347;28;20036;-74
2023/05/19 08:35:10;;;;;;;9.18;2.53;;;15.60;99.90;;;;;;5045655;28;20040;-75
2023/05/19 08:37:37;;;;;;;9.38;2.90;;;15.60;99.90;;;;;;5049762;28;20048;-75
2023/05/19 08:40:04;;;;;;;10.20;2.60;;;15.60;99.90;;;;;;5040936;28;20048;-75
2023/05/19 08:42:32;;;;;;;11.50;3.08;;;15.60;99.90;;;;;;5054747;28;20079;-74
2023/05/19 08:44:59;;;;;;;10.85;3.10;;;15.80;99.90;;;;;;5030799;28;20032;-75
2023/05/19 08:47:26;;;;;;;9.23;3.03;;;15.80;99.90;;;;;;5036766;28;20620;-74
2023/05/19 08:49:54;;;;;;;8.25;2.45;;;15.90;99.90;;;;;;5044446;28;20098;-75
2023/05/19 08:52:41;;;;;;;8.48;2.80;;;15.90;99.90;;;;;;5030925;28;20389;-74
2023/05/19 08:55:24;;;;;;;10.57;2.80;;;16.00;99.90;;;;;;5051026;28;20048;-74
2023/05/19 08:57:51;;;;;;;9.73;2.78;;;16.00;99.90;;;;;;5052725;28;20047;-75
2023/05/19 09:00:19;;;;;;;9.55;3.03;;;16.00;99.90;;;;;;5045106;28;20064;-75
2023/05/19 09:02:48;;;;;;;8.60;2.70;;;16.10;99.90;;;;;;5049414;28;20052;-74
2023/05/19 09:05:16;;;;;;;11.20;3.08;;;16.10;99.90;;;;;;5052270;28;20072;-74
2023/05/19 09:07:43;;;;;;;10.02;3.08;;;16.20;99.90;;;;;;5050593;28;20053;-75
2023/05/19 09:10:13;;;;;;;10.52;2.90;;;16.20;99.90;;;;;;5046599;28;20032;-75
2023/05/19 09:12:39;;;;;;;12.25;3.10;;;16.20;99.90;;;;;;5045204;28;20056;-74
2023/05/19 09:15:07;;;;;;;11.95;3.03;;;16.20;99.90;;;;;;5031720;28;20052;-74
2023/05/19 09:17:34;;;;;;;11.88;3.42;;;16.20;99.90;;;;;;5055271;28;20052;-74
2023/05/19 09:20:09;;;;;;;12.38;3.17;;;16.30;99.90;;;;;;5049238;28;20121;-75
2023/05/19 09:22:40;;;;;;;11.27;3.17;;;16.40;99.90;;;;;;5048168;28;20159;-74
2023/05/19 09:25:17;;;;;;;10.80;2.90;;;16.50;99.90;;;;;;5051572;28;20438;-74
2023/05/19 09:27:46;;;;;;;10.90;3.72;;;16.50;99.90;;;;;;5050561;28;20056;-75
2023/05/19 09:30:12;;;;;;;10.32;3.05;;;16.50;99.90;;;;;;5048966;28;20044;-75
2023/05/19 09:32:38;;;;;;;11.18;2.90;;;16.40;99.90;;;;;;5046218;28;20115;-75
2023/05/19 09:35:04;;;;;;;10.13;2.70;;;16.30;99.90;;;;;;5040050;28;20554;-74
2023/05/19 09:37:31;;;;;;;10.00;2.67;;;16.40;99.90;;;;;;5047649;28;20037;-75
2023/05/19 09:39:57;;;;;;;10.20;2.88;;;16.50;99.90;;;;;;5028264;28;20026;-75
2023/05/19 09:42:27;;;;;;;12.35;2.83;;;16.40;99.90;;;;;;5049837;28;20041;-75
2023/05/19 09:45:02;;;;;;;10.27;2.88;;;16.50;99.90;;;;;;5028945;28;20533;-75
2023/05/19 09:47:36;;;;;;;8.23;2.40;;;16.60;99.90;;;;;;5049591;28;20529;-75
2023/05/19 09:50:07;;;;;;;10.18;2.55;;;16.60;99.90;;;;;;5049423;28;20052;-75
2023/05/19 09:52:42;;;;;;;9.57;2.70;;;16.60;99.90;;;;;;5053198;28;20041;-75
2023/05/19 09:55:11;;;;;;;11.18;2.67;;;16.70;99.90;;;;;;5046663;28;20044;-74
2023/05/19 09:57:38;;;;;;;9.60;2.53;;;16.80;99.90;;;;;;5044426;28;20032;-75
2023/05/19 10:00:16;;;;;;;9.00;2.78;;;16.80;99.90;;;;;;5062615;28;20037;-75
2023/05/19 10:02:43;;;;;;;9.50;2.40;;;16.80;99.90;;;;;;5056790;28;20051;-75
2023/05/19 10:05:15;;;;;;;8.73;2.53;;;16.70;99.90;;;;;;5054013;28;20040;-75
2023/05/19 10:07:43;;;;;;;9.85;2.28;;;16.80;99.90;;;;;;5053196;28;20049;-75
2023/05/19 10:10:11;;;;;;;10.45;2.83;;;16.80;99.90;;;;;;5058560;28;20036;-75
2023/05/19 10:12:38;;;;;;;9.35;2.65;;;16.90;99.90;;;;;;5051730;28;20071;-75
2023/05/19 10:15:15;;;;;;;8.00;2.28;;;17.00;99.90;;;;;;5046791;28;20036;-77
2023/05/19 10:17:42;;;;;;;9.13;2.80;;;17.00;99.90;;;;;;5063712;28;20048;-77
2023/05/19 10:20:11;;;;;;;9.15;2.40;;;17.00;99.90;;;;;;5044038;28;20253;-77
2023/05/19 10:22:41;;;;;;;6.90;2.20;;;17.00;99.90;;;;;;5039445;28;20027;-77
2023/05/19 10:25:08;;;;;;;8.68;2.40;;;17.10;99.90;;;;;;5064643;28;20090;-77
2023/05/19 10:28:03;;;;;;;10.77;2.80;;;17.20;99.90;;;;;;5051173;28;20051;-77
2023/05/19 10:30:34;;;;;;;8.15;2.28;;;17.20;99.90;;;;;;5031558;28;20067;-78
2023/05/19 10:33:02;;;;;;;9.05;2.42;;;17.20;99.90;;;;;;5037459;28;20101;-77
2023/05/19 10:35:57;;;;;;;11.23;2.55;;;17.10;99.90;;;;;;5026173;28;20037;-77
2023/05/19 10:38:41;;;;;;;7.30;2.10;;;17.10;99.90;;;;;;5054638;28;20078;-77
2023/05/19 10:41:36;;;;;;;8.23;2.30;;;17.10;99.90;;;;;;5051970;28;20463;-77
2023/05/19 10:44:14;;;;;;;10.40;2.47;;;17.20;99.90;;;;;;5070706;28;20560;-77
2023/05/19 10:46:41;;;;;;;9.32;2.38;;;17.30;99.90;;;;;;5050975;28;20036;-77
2023/05/19 10:49:07;;;;;;;8.85;2.30;;;17.40;99.90;;;;;;5047526;28;20040;-77
2023/05/19 10:51:35;;;;;;;8.75;2.80;;;17.50;99.90;;;;;;5020302;28;20101;-76
2023/05/19 10:54:01;;;;;;;9.30;2.20;;;17.70;99.90;;;;;;5053415;28;20037;-76
2023/05/19 10:56:33;;;;;;;8.05;2.20;;;17.90;99.90;;;;;;5051502;28;20554;-76
2023/05/19 10:59:02;;;;;;;8.75;2.58;;;18.20;99.90;;;;;;5060803;28;20161;-77
2023/05/19 11:01:33;;;;;;;9.93;2.38;;;18.30;99.90;;;;;;5051704;28;20053;-77
2023/05/19 11:04:09;;;;;;;11.88;2.30;;;18.30;99.90;;;;;;5046417;28;20048;-76
2023/05/19 11:06:36;;;;;;;7.53;2.20;;;18.30;99.90;;;;;;5062939;28;20039;-77
2023/05/19 11:09:13;;;;;;;8.98;2.17;;;18.20;99.90;;;;;;5040860;28;20048;-74
2023/05/19 11:11:49;;;;;;;8.02;2.47;;;18.10;99.90;;;;;;5048531;28;20433;-74
2023/05/19 11:14:25;;;;;;;8.20;2.15;;;18.20;99.90;;;;;;5063004;28;20497;-74
2023/05/19 11:16:56;;;;;;;8.13;2.28;;;18.40;99.90;;;;;;5054080;28;20040;-74
2023/05/19 11:19:29;;;;;;;8.65;2.42;;;18.30;99.90;;;;;;5051077;28;20401;-75
2023/05/19 11:22:06;;;;;;;10.52;2.75;;;18.20;99.90;;;;;;5065695;28;20108;-74
2023/05/19 11:24:40;;;;;;;9.10;2.60;;;18.10;99.90;;;;;;5049462;28;20049;-74
2023/05/19 11:27:32;;;;;;;9.10;2.53;;;17.60;99.90;;;;;;5057996;28;20135;-74
2023/05/19 11:30:13;;;;;;;9.25;2.30;;;18.10;99.90;;;;;;5068425;28;20076;-74
2023/05/19 11:32:41;;;;;;;8.70;2.58;;;18.20;99.90;;;;;;5059285;28;20057;-74
2023/05/19 11:35:08;;;;;;;8.82;2.45;;;18.40;99.90;;;;;;5048102;28;20047;-74
2023/05/19 11:37:35;;;;;;;10.23;2.40;;;18.50;99.90;;;;;;5035484;28;20126;-75
2023/05/19 11:40:04;;;;;;;10.85;2.75;;;18.70;99.90;;;;;;5049996;28;20485;-74
2023/05/19 11:42:30;;;;;;;10.15;2.92;;;18.40;99.90;;;;;;5035958;28;20167;-75
2023/05/19 11:44:56;;;;;;;11.07;2.80;;;18.40;99.90;;;;;;5052499;28;20101;-74
2023/05/19 11:47:22;;;;;;;9.98;2.72;;;18.40;99.90;;;;;;5048149;28;20044;-75
2023/05/19 11:49:50;;;;;;;11.10;2.72;;;18.30;99.90;;;;;;5041890;28;20130;-74
2023/05/19 11:52:16;;;;;;;9.18;2.58;;;;;;;;;;5052837;28;20067;-75
2023/05/19 11:54:46;;;;;;;9.25;2.45;;;18.10;99.90;;;;;;5049875;28;20048;-75
2023/05/19 11:57:12;;;;;;;9.20;2.40;;;18.00;99.90;;;;;;5049342;28;20051;-75
2023/05/19 11:59:42;;;;;;;10.70;2.58;;;18.00;99.90;;;;;;5045423;28;20028;-75
2023/05/19 12:02:24;;;;;;;10.15;2.90;;;18.00;99.90;;;;;;5044703;28;20061;-76
2023/05/19 12:04:51;;;;;;;9.77;2.53;;;18.00;99.90;;;;;;5047838;28;20083;-75
2023/05/19 12:07:23;;;;;;;9.77;2.45;;;18.00;99.90;;;;;;5045884;28;20129;-74
2023/05/19 12:09:52;;;;;;;10.80;2.60;;;18.10;99.90;;;;;;5048964;28;20283;-75
2023/05/19 12:12:19;;;;;;;10.00;2.90;;;18.40;99.90;;;;;;5038691;28;20459;-74
2023/05/19 12:14:46;;;;;;;12.18;2.67;;;18.50;99.90;;;;;;5061375;28;20132;-74
2023/05/19 12:17:13;;;;;;;10.68;2.53;;;18.60;99.90;;;;;;5033377;28;20506;-76
2023/05/19 12:19:43;;;;;;;10.85;3.15;;;18.70;99.90;;;;;;5057140;28;20418;-75
2023/05/19 12:22:10;;;;;;;9.80;2.70;;;18.80;99.90;;;;;;5045683;28;21189;-75
2023/05/19 12:24:37;;;;;;;9.73;2.70;;;19.00;99.90;;;;;;5049734;28;20103;-75
2023/05/19 12:27:10;;;;;;;11.10;3.03;;;19.10;99.90;;;;;;5041020;28;20140;-75
2023/05/19 12:29:38;;;;;;;8.35;2.85;;;19.10;99.90;;;;;;5050500;28;20049;-75
2023/05/19 12:32:06;;;;;;;10.60;2.80;;;19.10;99.90;;;;;;5039872;28;20897;-75
2023/05/19 12:34:38;;;;;;;9.23;2.50;;;19.20;99.90;;;;;;5050555;28;20510;-74
2023/05/19 12:37:04;;;;;;;9.20;3.05;;;19.10;99.90;;;;;;5039509;28;20785;-75
2023/05/19 12:39:31;;;;;;;8.30;2.47;;;19.00;99.90;;;;;;5055155;28;20029;-75
2023/05/19 12:42:06;;;;;;;10.18;3.30;;;19.00;99.90;;;;;;5050257;28;20235;-75
2023/05/19 12:44:37;;;;;;;12.05;2.67;;;18.90;99.90;;;;;;5047752;28;20143;-76
2023/05/19 12:47:04;;;;;;;11.75;3.28;;;18.80;99.90;;;;;;5065704;28;20097;-75
2023/05/19 12:49:31;;;;;;;8.57;2.70;;;18.90;99.90;;;;;;5043793;28;20049;-76